IBM weather

Public forecast

Using degrees Fahrenheit for public forecast. Weather courtesy of forecast.io.

Current aviation weather report (METAR) for Kimball Municipal Robert E Arraj Field

Retrieved 2020/08/09 08:35 UTC (0 seconds ago):

KIBM 090835Z AUTO 10005KT 10SM CLR 17/09 A3007 RMK AO2 T01710092

Closest aviation forecast (TAF) to Kimball Municipal Robert E Arraj Field

Closest forecast is Sidney Municipal-Lloyd W Carr Field, 31.7 nm (58.7 km) E. Retrieved 2020/08/09 06:36 UTC (2 hours ago):

TAF KSNY 090530Z 0906/1006 21006KT P6SM SKC FM090900 29008KT P6SM FEW140 FM091800 33013KT P6SM FEW150 FM100000 07010KT P6SM SCT200